Morada Nova de Minas, Brazil
Current Conditions -  °F | °C
As of 8:00 AM on Friday 21 Nov 2014 (Local Time) from SBLS Reporting Station
Clear Clear  
Wind Chill: 68°   Ceiling: Unl
Heat Index: 68°   Visibility: 6mi
Dew Point: 57°   Wind: 8mph
Humidity: 68%   Direction: 160°SSE
Pressure: 30.09"   Gusts: NA
Location:  18.6°S, 45.36°W
Report Text: SBLS 211000Z 16007KT CAVOK 20/14 Q1019
Loading
Personal Weather Stations






























Interactive Weather Map New forecast layout! Learn more

10-Day Weather Forecast

Advertisements
Track Severe Weather on mobile